Alexandria, Kentucky
Current Conditions -  °F | °C
As of 5:32 AM on Sunday 21 Dec 2014 (Local Time) from KLUK Reporting Station
Haze Haze  
Wind Chill: 21°   Ceiling: 2200
Heat Index: 21°   Visibility: 4mi
Dew Point: 21°   Wind: 0mph
Humidity: 100%   Direction: NA
Pressure: 30.34"   Gusts: NA
Location:  38.96°N, 84.4°W
Report Text: KLUK 211032Z AUTO 00000KT 4SM BR BKN022 M06/M06 A3034 RMK AO2 T10611061
Loading
Personal Weather Stations






























Interactive Weather Map New forecast layout! Learn more

10-Day Weather Forecast

Advertisements
Track Severe Weather on mobile